Time;durP1;ratioP1;P1;durP2;ratioP2;P2;SDS_P1;SDS_P2;PMS_P1;PMS_P2;Temp;Humidity;BMP_temperature;BMP_pressure;BME280_temperature;BME280_humidity;BME280_pressure;Samples;Min_cycle;Max_cycle;Signal;HPM_P1;HPM_P2
2023/07/24 00:01:54;;;;;;;5.82;2.47;;;;;;;-142.75;100.00;75212.28;5091042;28;20024;-64
2023/07/24 00:04:19;;;;;;;6.00;2.50;;;;;;;-142.75;100.00;75228.00;5089851;28;20038;-65
2023/07/24 00:06:44;;;;;;;4.70;2.22;;;;;;;-142.75;100.00;75214.25;5089701;28;20020;-65
2023/07/24 00:09:10;;;;;;;5.00;2.13;;;;;;;-142.75;100.00;75196.53;5091104;28;20034;-64
2023/07/24 00:11:35;;;;;;;4.28;2.70;;;;;;;-142.75;100.00;75202.44;5090886;28;20115;-64
2023/07/24 00:14:00;;;;;;;5.18;2.50;;;;;;;-142.75;100.00;75210.31;5091028;28;20054;-64
2023/07/24 00:16:26;;;;;;;4.93;2.72;;;;;;;-142.75;100.00;75222.13;5090931;28;20078;-65
2023/07/24 00:18:51;;;;;;;5.20;2.53;;;;;;;-142.75;100.00;75208.34;5090775;28;20028;-64
2023/07/24 00:21:16;;;;;;;3.67;2.00;;;;;;;-142.75;100.00;75196.53;5090288;28;20066;-64
2023/07/24 00:23:42;;;;;;;4.25;2.40;;;;;;;-142.75;100.00;75192.59;5090909;28;20176;-65
2023/07/24 00:26:07;;;;;;;4.43;2.15;;;;;;;-142.75;100.00;75194.56;5090663;28;20050;-64
2023/07/24 00:28:33;;;;;;;4.18;2.40;;;;;;;-142.75;100.00;75188.66;5090589;28;20020;-66
2023/07/24 00:30:58;;;;;;;4.70;2.30;;;;;;;-142.75;100.00;75180.78;5090345;28;20028;-64
2023/07/24 00:33:23;;;;;;;3.78;1.85;;;;;;;-142.75;100.00;75182.75;5090675;28;20027;-64
2023/07/24 00:35:49;;;;;;;5.07;2.35;;;;;;;-142.75;100.00;75190.63;5090429;28;20528;-64
2023/07/24 00:38:14;;;;;;;5.68;2.35;;;;;;;-142.75;100.00;75196.53;5090550;28;20597;-64
2023/07/24 00:40:40;;;;;;;3.78;2.35;;;;;;;-142.75;100.00;75194.56;5090081;28;20027;-65
2023/07/24 00:43:05;;;;;;;6.95;2.33;;;;;;;-142.75;100.00;75168.97;5090706;28;20059;-64
2023/07/24 00:45:31;;;;;;;4.07;2.10;;;;;;;-142.75;100.00;75159.16;5090525;28;20110;-65
2023/07/24 00:47:59;;;;;;;5.25;2.17;;;;;;;-142.75;100.00;75167.00;5090315;28;20024;-64
2023/07/24 00:50:24;;;;;;;6.57;2.50;;;;;;;-142.75;100.00;75172.91;5089219;28;20030;-64
2023/07/24 00:52:50;;;;;;;5.07;2.75;;;;;;;-142.75;100.00;75176.84;5069969;28;20107;-64
2023/07/24 00:55:17;;;;;;;5.00;2.65;;;;;;;-142.75;100.00;75165.03;5068892;28;20075;-64
2023/07/24 00:57:43;;;;;;;5.47;2.55;;;;;;;-142.75;100.00;75182.75;5069806;28;20036;-66
2023/07/24 01:00:09;;;;;;;4.82;2.17;;;;;;;-142.75;100.00;75165.03;5069528;28;20028;-64
2023/07/24 01:02:35;;;;;;;4.45;2.45;;;;;;;-142.75;100.00;75176.84;5069831;28;20077;-63
2023/07/24 01:05:02;;;;;;;5.35;2.83;;;;;;;-142.75;100.00;75190.63;5069594;28;20028;-65
2023/07/24 01:07:28;;;;;;;4.53;2.47;;;;;;;-142.75;100.00;75176.84;5069533;28;20067;-64
2023/07/24 01:09:53;;;;;;;5.20;2.55;;;;;;;-142.75;100.00;75161.13;5069442;28;20044;-65
2023/07/24 01:12:35;;;;;;;5.88;2.70;;;;;;;-142.75;100.00;75168.97;5077929;28;20039;-64
2023/07/24 01:15:17;;;;;;;4.15;2.50;;;;;;;-142.75;100.00;75157.19;5069635;28;20028;-64
2023/07/24 01:17:48;;;;;;;4.78;2.40;;;;;;;-142.75;100.00;75161.13;5069383;28;20050;-65
2023/07/24 01:20:16;;;;;;;3.70;2.28;;;;;;;-142.75;100.00;75161.13;5069399;28;20119;-64
2023/07/24 01:23:04;;;;;;;4.28;2.20;;;;;;;-142.75;100.00;75157.19;5069467;28;20035;-64
2023/07/24 01:25:37;;;;;;;13.45;2.45;;;;;;;-142.75;100.00;75165.03;5069399;28;20032;-64
2023/07/24 01:28:07;;;;;;;4.82;2.35;;;;;;;-142.75;100.00;75151.28;5069137;28;20033;-65
2023/07/24 01:30:32;;;;;;;4.05;2.00;;;;;;;-142.75;100.00;75153.25;5069176;28;20029;-64
2023/07/24 01:32:58;;;;;;;3.22;1.92;;;;;;;-142.75;100.00;75155.22;5069008;28;20415;-62
2023/07/24 01:35:25;;;;;;;5.45;2.10;;;;;;;-142.75;100.00;75137.50;5069340;28;20036;-64
2023/07/24 01:37:52;;;;;;;6.05;2.55;;;;;;;-142.75;100.00;75149.31;5068995;28;20044;-64
2023/07/24 01:40:17;;;;;;;4.38;2.05;;;;;;;-142.75;100.00;75153.25;5068645;28;20028;-64
2023/07/24 01:42:43;;;;;;;5.43;2.75;;;;;;;-142.75;100.00;75176.84;5068789;28;20107;-64
2023/07/24 01:45:09;;;;;;;5.07;2.42;;;;;;;-142.75;100.00;75161.13;5069063;28;20036;-64
2023/07/24 01:47:34;;;;;;;6.85;2.42;;;;;;;-142.75;100.00;75161.13;5068488;28;20031;-64
2023/07/24 01:49:59;;;;;;;4.10;2.55;;;;;;;-142.75;100.00;75153.25;5068576;28;20026;-64
2023/07/24 01:52:25;;;;;;;6.03;2.60;;;;;;;-142.75;100.00;75155.22;5051094;28;20044;-64
2023/07/24 01:54:51;;;;;;;3.78;2.25;;;;;;;-142.75;100.00;75161.13;5068888;28;20549;-64
2023/07/24 01:57:16;;;;;;;5.35;3.13;;;;;;;-142.75;100.00;75153.25;5069397;28;20025;-64
2023/07/24 01:59:41;;;;;;;4.95;2.80;;;;;;;-142.75;100.00;75149.31;5069124;28;20029;-64
2023/07/24 02:02:07;;;;;;;5.57;2.50;;;;;;;-142.75;100.00;75141.44;5088527;28;20024;-64
2023/07/24 02:04:32;;;;;;;5.22;2.80;;;;;;;-142.75;100.00;75143.41;5088835;28;20028;-65
2023/07/24 02:06:58;;;;;;;5.25;2.40;;;;;;;-142.75;100.00;75157.19;5088276;28;20028;-66
2023/07/24 02:09:23;;;;;;;4.65;2.65;;;;;;;-142.75;100.00;75137.50;5081695;28;20024;-63
2023/07/24 02:11:48;;;;;;;5.88;2.78;;;;;;;-142.75;100.00;75151.28;5068154;28;20044;-63
2023/07/24 02:14:16;;;;;;;6.03;2.83;;;;;;;-142.75;100.00;75149.31;5068488;28;20619;-65
2023/07/24 02:16:42;;;;;;;6.35;3.67;;;;;;;-142.75;100.00;75151.28;5087527;28;20470;-65
2023/07/24 02:19:07;;;;;;;7.10;3.75;;;;;;;-142.75;100.00;75131.59;5088630;28;20038;-65
2023/07/24 02:21:32;;;;;;;6.93;3.38;;;;;;;-142.75;100.00;75113.88;5088375;28;20036;-65
2023/07/24 02:23:58;;;;;;;6.32;3.75;;;;;;;-142.75;100.00;75137.50;5088663;28;20081;-65
2023/07/24 02:26:23;;;;;;;6.63;3.65;;;;;;;-142.75;100.00;75135.53;5088569;28;20030;-65
2023/07/24 02:28:48;;;;;;;6.55;4.03;;;;;;;-142.75;100.00;75139.47;5088702;28;20026;-66
2023/07/24 02:31:14;;;;;;;9.23;3.80;;;;;;;-142.75;100.00;75147.34;5088390;28;20028;-66
2023/07/24 02:33:39;;;;;;;8.13;3.92;;;;;;;-142.75;100.00;75141.44;5088595;28;20028;-66
2023/07/24 02:36:05;;;;;;;6.68;4.07;;;;;;;-142.75;100.00;75141.44;5088454;28;20019;-65
2023/07/24 02:38:30;;;;;;;7.30;4.03;;;;;;;-142.75;100.00;75137.50;5088456;28;20085;-65
2023/07/24 02:40:55;;;;;;;5.72;3.70;;;;;;;-142.75;100.00;75125.69;5088008;28;20081;-65
2023/07/24 02:43:21;;;;;;;8.13;3.42;;;;;;;-142.75;100.00;75129.63;5088141;28;20099;-65
2023/07/24 02:45:46;;;;;;;6.90;3.97;;;;;;;-142.75;100.00;75133.56;5088060;28;20020;-65
2023/07/24 02:48:11;;;;;;;8.43;4.53;;;;;;;-142.75;100.00;75165.03;5088209;28;20059;-65
2023/07/24 02:50:37;;;;;;;7.72;3.78;;;;;;;-142.75;100.00;75163.09;5088115;28;20048;-65
2023/07/24 02:53:02;;;;;;;6.95;4.13;;;;;;;-142.75;100.00;75155.22;5088333;28;20478;-66
2023/07/24 02:55:28;;;;;;;9.40;3.65;;;;;;;-142.75;100.00;75208.34;5088119;28;20023;-64
2023/07/24 02:57:53;;;;;;;8.65;3.53;;;;;;;-142.75;100.00;75196.53;5088436;28;20031;-65
2023/07/24 03:00:19;;;;;;;9.05;3.78;;;;;;;-142.75;100.00;75212.28;5087847;28;20673;-65
2023/07/24 03:02:44;;;;;;;7.10;3.45;;;;;;;-142.75;100.00;75163.09;5088339;28;20028;-65
2023/07/24 03:05:09;;;;;;;8.05;3.15;;;;;;;-142.75;100.00;75163.09;5088017;28;20054;-65
2023/07/24 03:07:35;;;;;;;5.38;3.38;;;;;;;-142.75;100.00;75180.78;5088133;28;20097;-65
2023/07/24 03:10:01;;;;;;;9.82;3.85;;;;;;;-142.75;100.00;75174.88;5086515;28;20020;-65
2023/07/24 03:12:26;;;;;;;6.25;3.60;;;;;;;-142.75;100.00;75196.53;5088139;28;20024;-65
2023/07/24 03:14:52;;;;;;;7.00;3.10;;;;;;;-142.75;100.00;75170.94;5087932;28;20047;-65
2023/07/24 03:17:17;;;;;;;6.63;3.60;;;;;;;-142.75;100.00;75172.91;5088025;28;20257;-65
2023/07/24 03:19:42;;;;;;;6.35;3.25;;;;;;;-142.75;100.00;75167.00;5090402;28;20065;-65
2023/07/24 03:22:08;;;;;;;5.63;3.35;;;;;;;-142.75;100.00;75196.53;5091715;28;20503;-65
2023/07/24 03:24:34;;;;;;;7.25;3.17;;;;;;;-142.75;100.00;75172.91;5091745;28;20031;-66
2023/07/24 03:27:00;;;;;;;9.48;3.35;;;;;;;-142.75;100.00;75165.03;5091718;28;20525;-65
2023/07/24 03:29:25;;;;;;;6.70;3.75;;;;;;;-142.75;100.00;75170.94;5091804;28;20039;-65
2023/07/24 03:31:51;;;;;;;7.05;4.18;;;;;;;-142.75;100.00;75161.13;5091533;28;20020;-65
2023/07/24 03:34:16;;;;;;;6.57;3.88;;;;;;;-142.75;100.00;75172.91;5091551;28;20050;-65
2023/07/24 03:36:42;;;;;;;6.60;3.97;;;;;;;-142.75;100.00;75180.78;5091562;28;20112;-65
2023/07/24 03:39:11;;;;;;;10.80;4.30;;;;;;;-142.75;100.00;75161.13;5091646;28;20028;-65
2023/07/24 03:41:38;;;;;;;7.75;4.82;;;;;;;-142.75;100.00;75176.84;5091484;28;20028;-65
2023/07/24 03:44:03;;;;;;;6.85;3.78;;;;;;;-142.75;100.00;75153.25;5091553;28;20024;-65
2023/07/24 03:46:29;;;;;;;10.40;4.22;;;;;;;-142.75;100.00;75151.28;5090765;28;20034;-65
2023/07/24 03:48:54;;;;;;;6.45;3.97;;;;;;;-142.75;100.00;75165.03;5071251;28;20024;-65
2023/07/24 03:51:20;;;;;;;7.38;4.55;;;;;;;-142.75;100.00;75143.41;5070896;28;20024;-66
2023/07/24 03:53:46;;;;;;;11.20;4.05;;;;;;;-142.75;100.00;75135.53;5071126;28;20050;-65
2023/07/24 03:56:11;;;;;;;6.90;3.60;;;;;;;-142.75;100.00;75135.53;5071118;28;20081;-64
2023/07/24 03:58:38;;;;;;;10.07;4.63;;;;;;;-142.75;100.00;75157.19;5071035;28;20029;-65
2023/07/24 04:01:04;;;;;;;9.23;4.57;;;;;;;-142.75;100.00;75153.25;5070569;28;20025;-65
2023/07/24 04:03:29;;;;;;;12.32;4.40;;;;;;;-142.75;100.00;75153.25;5070837;28;20020;-64
2023/07/24 04:05:54;;;;;;;9.70;4.88;;;;;;;-142.75;100.00;75159.16;5070978;28;20392;-67
2023/07/24 04:08:20;;;;;;;8.40;4.65;;;;;;;-142.75;100.00;75157.19;5070594;28;20020;-67
2023/07/24 04:10:45;;;;;;;8.82;4.28;;;;;;;-142.75;100.00;75174.88;5070611;28;20055;-67
2023/07/24 04:13:10;;;;;;;9.32;4.30;;;;;;;-142.75;100.00;75172.91;5070865;28;20647;-67
2023/07/24 04:15:36;;;;;;;9.20;4.07;;;;;;;-142.75;100.00;75174.88;5071060;28;20508;-67
2023/07/24 04:18:02;;;;;;;9.70;4.20;;;;;;;-142.75;100.00;75163.09;5070845;28;20031;-67
2023/07/24 04:20:27;;;;;;;13.68;4.60;;;;;;;-142.75;100.00;75200.47;5070556;28;20533;-67
2023/07/24 04:22:52;;;;;;;9.57;4.15;;;;;;;-142.75;100.00;75192.59;5070572;28;20426;-67
2023/07/24 04:25:18;;;;;;;8.98;3.80;;;;;;;-142.75;100.00;75214.25;5070624;28;20391;-67
2023/07/24 04:27:43;;;;;;;6.63;3.28;;;;;;;-142.75;100.00;75206.38;5070579;28;20024;-65
2023/07/24 04:30:09;;;;;;;12.05;4.05;;;;;;;-142.75;100.00;75210.31;5070009;28;20409;-65
2023/07/24 04:32:34;;;;;;;6.70;3.80;;;;;;;-142.75;100.00;75224.09;5070404;28;20111;-65
2023/07/24 04:34:59;;;;;;;11.60;4.03;;;;;;;-142.75;100.00;75224.09;5070379;28;20162;-65
2023/07/24 04:37:25;;;;;;;8.32;3.50;;;;;;;-142.75;100.00;75228.00;5070369;28;20024;-65
2023/07/24 04:39:50;;;;;;;8.43;3.85;;;;;;;-142.75;100.00;75226.06;5069994;28;20024;-65
2023/07/24 04:42:15;;;;;;;8.00;3.42;;;;;;;-142.75;100.00;75243.75;5070114;28;20029;-65
2023/07/24 04:44:41;;;;;;;7.97;3.33;;;;;;;-142.75;100.00;75231.94;5070173;28;20024;-65
2023/07/24 04:47:06;;;;;;;9.85;3.58;;;;;;;-142.75;100.00;75247.69;5070149;28;20557;-64
2023/07/24 04:49:32;;;;;;;7.15;3.05;;;;;;;-142.75;100.00;75251.63;5070162;28;20392;-65
2023/07/24 04:51:58;;;;;;;11.25;4.40;;;;;;;-142.75;100.00;75257.53;5070096;28;20109;-65
2023/07/24 04:54:24;;;;;;;8.45;3.55;;;;;;;-142.75;100.00;75261.47;5070038;28;20024;-65
2023/07/24 04:56:49;;;;;;;5.70;2.60;;;;;;;-142.75;100.00;75263.44;5069992;28;20623;-65
2023/07/24 04:59:15;;;;;;;6.40;2.65;;;;;;;-142.75;100.00;75267.38;5069906;28;20097;-64
2023/07/24 05:01:40;;;;;;;8.27;2.50;;;;;;;-142.75;100.00;75261.47;5071062;28;20016;-65
2023/07/24 05:04:05;;;;;;;9.65;2.92;;;;;;;-142.75;100.00;75273.28;5069862;28;20503;-65
2023/07/24 05:06:31;;;;;;;5.68;2.72;;;;;;;-142.75;100.00;75265.41;5069901;28;20028;-65
2023/07/24 05:08:56;;;;;;;7.93;2.75;;;;;;;-142.75;100.00;75291.00;5089834;28;20020;-65
2023/07/24 05:11:21;;;;;;;5.47;2.85;;;;;;;-142.75;100.00;75277.22;5089523;28;20059;-65
2023/07/24 05:13:47;;;;;;;10.10;2.67;;;;;;;-142.75;100.00;75287.06;5089972;28;20023;-65
2023/07/24 05:16:12;;;;;;;8.10;2.78;;;;;;;-142.75;100.00;75281.16;5089655;28;20527;-65
2023/07/24 05:18:37;;;;;;;7.18;2.95;;;;;;;-142.75;100.00;75279.19;5089601;28;20027;-65
2023/07/24 05:21:03;;;;;;;5.80;2.40;;;;;;;-142.75;100.00;75281.16;5089397;28;20064;-65
2023/07/24 05:23:28;;;;;;;8.38;2.72;;;;;;;-142.75;100.00;75277.22;5073330;28;20024;-65
2023/07/24 05:26:01;;;;;;;6.75;2.53;;;;;;;-142.75;100.00;75263.44;5069505;28;20020;-65
2023/07/24 05:28:27;;;;;;;7.72;2.85;;;;;;;-142.75;100.00;75263.44;5069571;28;20534;-65
2023/07/24 05:30:53;;;;;;;9.18;2.90;;;;;;;-142.75;100.00;75259.50;5069029;28;20020;-65
2023/07/24 05:33:18;;;;;;;4.78;2.35;;;;;;;-142.75;100.00;75251.63;5069333;28;20027;-65
2023/07/24 05:35:44;;;;;;;6.00;3.40;;;;;;;-142.75;100.00;75245.72;5069177;28;20024;-65
2023/07/24 05:38:09;;;;;;;8.13;3.17;;;;;;;-142.75;100.00;75235.88;5069076;28;20016;-65
2023/07/24 05:40:35;;;;;;;7.43;2.83;;;;;;;-142.75;100.00;75222.13;5066737;28;20117;-64
2023/07/24 05:43:00;;;;;;;7.03;3.40;;;;;;;-142.75;100.00;75208.34;5067767;28;20032;-64
2023/07/24 05:45:26;;;;;;;10.25;2.83;;;;;;;-142.75;100.00;75206.38;5068303;28;20468;-64
2023/07/24 05:47:52;;;;;;;7.43;3.28;;;;;;;-142.75;100.00;75188.66;5067990;28;20052;-65
2023/07/24 05:50:17;;;;;;;6.28;2.67;;;;;;;-142.75;100.00;75167.00;5068012;28;20020;-65
2023/07/24 05:52:43;;;;;;;6.30;3.55;;;;;;;-142.75;100.00;75174.88;5068198;28;20118;-64
2023/07/24 05:55:08;;;;;;;9.90;2.80;;;;;;;-142.75;100.00;75167.00;5068208;28;20100;-65
2023/07/24 05:57:34;;;;;;;9.18;2.95;;;;;;;-142.75;100.00;75157.19;5068261;28;20111;-64
2023/07/24 05:59:59;;;;;;;9.32;3.13;;;;;;;-142.75;100.00;75125.69;5067909;28;20016;-63
2023/07/24 06:02:25;;;;;;;9.10;2.85;;;;;;;-142.75;100.00;75125.69;5068309;28;20028;-65
2023/07/24 06:04:50;;;;;;;9.50;3.05;;;;;;;-142.75;100.00;75094.22;5067984;28;20024;-65
2023/07/24 06:07:15;;;;;;;6.63;2.90;;;;;;;-142.75;100.00;75098.16;5068370;28;20484;-64
2023/07/24 06:09:41;;;;;;;7.78;3.05;;;;;;;-142.75;100.00;75104.03;5067615;28;20043;-65
2023/07/24 06:12:06;;;;;;;12.57;3.35;;;;;;;-142.75;100.00;75078.47;5067719;28;20438;-65
2023/07/24 06:14:32;;;;;;;10.02;3.78;;;;;;;-142.75;100.00;75106.00;5067892;28;20115;-65
2023/07/24 06:16:57;;;;;;;7.43;3.00;;;;;;;-142.75;100.00;75109.94;5068657;28;20568;-65
2023/07/24 06:19:22;;;;;;;7.55;3.15;;;;;;;-142.75;100.00;75111.91;5068356;28;20029;-65
2023/07/24 06:21:48;;;;;;;9.65;3.35;;;;;;;-142.75;100.00;75104.03;5068204;28;20267;-64
2023/07/24 06:24:13;;;;;;;9.05;3.08;;;;;;;-142.75;100.00;75098.16;5069805;28;20077;-64
2023/07/24 06:26:39;;;;;;;5.28;2.55;;;;;;;-142.75;100.00;75092.25;5068382;28;20048;-64
2023/07/24 06:29:05;;;;;;;9.07;2.63;;;;;;;-142.75;100.00;75096.19;5070010;28;20024;-64
2023/07/24 06:31:30;;;;;;;9.95;2.97;;;;;;;-142.75;100.00;75086.34;5072746;28;20048;-65
2023/07/24 06:33:55;;;;;;;10.02;2.90;;;;;;;-142.75;100.00;75082.41;5071466;28;20021;-63
2023/07/24 06:36:21;;;;;;;5.93;2.42;;;;;;;-142.75;100.00;75082.41;5076722;28;20024;-64
2023/07/24 06:38:47;;;;;;;8.13;3.05;;;;;;;-142.75;100.00;75078.47;5076696;28;20058;-64
2023/07/24 06:41:15;;;;;;;7.18;3.00;;;;;;;-142.75;100.00;75076.50;5071577;28;20103;-64
2023/07/24 06:43:41;;;;;;;7.80;3.05;;;;;;;-142.75;100.00;75080.44;5077716;28;20569;-64
2023/07/24 06:46:06;;;;;;;5.80;2.38;;;;;;;-142.75;100.00;75094.22;5076314;28;20036;-64
2023/07/24 06:48:32;;;;;;;9.07;3.08;;;;;;;-142.75;100.00;75106.00;5083993;28;20055;-64
2023/07/24 06:50:57;;;;;;;10.73;2.75;;;;;;;-142.75;100.00;75115.84;5077354;28;20035;-64
2023/07/24 06:53:23;;;;;;;9.48;2.80;;;;;;;-142.75;100.00;75102.06;5081822;28;20020;-64
2023/07/24 06:55:48;;;;;;;8.05;2.67;;;;;;;-142.75;100.00;75121.75;5078960;28;20024;-64
2023/07/24 06:58:13;;;;;;;11.23;3.00;;;;;;;-142.75;100.00;75113.88;5073315;28;20059;-63
2023/07/24 07:00:39;;;;;;;8.60;2.42;;;;;;;-142.75;100.00;75139.47;5071744;28;20024;-64
2023/07/24 07:03:04;;;;;;;5.15;2.45;;;;;;;-142.75;100.00;75131.59;5088707;28;20074;-63
2023/07/24 07:05:31;;;;;;;8.90;3.05;;;;;;;-142.75;100.00;75129.63;5091805;28;20036;-64
2023/07/24 07:07:57;;;;;;;8.85;2.72;;;;;;;-142.75;100.00;75147.34;5092191;28;20016;-64
2023/07/24 07:10:22;;;;;;;6.72;2.67;;;;;;;-142.75;100.00;75139.47;5090950;28;20027;-63
2023/07/24 07:12:47;;;;;;;8.02;4.05;;;;;;;-142.75;100.00;75141.44;5086732;28;20066;-63
2023/07/24 07:15:13;;;;;;;9.73;3.17;;;;;;;-142.75;100.00;75123.72;5072508;28;20040;-64
2023/07/24 07:17:38;;;;;;;6.50;3.10;;;;;;;-142.75;100.00;75115.84;5072012;28;20024;-64
2023/07/24 07:20:05;;;;;;;8.20;3.53;;;;;;;-142.75;100.00;75115.84;5070927;28;20056;-63
2023/07/24 07:22:30;;;;;;;9.48;3.50;;;;;;;-142.75;100.00;75113.88;5071716;28;20722;-63
2023/07/24 07:24:55;;;;;;;7.78;3.38;;;;;;;-142.75;100.00;75090.28;5071861;28;20020;-64
2023/07/24 07:27:21;;;;;;;6.00;2.90;;;;;;;-142.75;100.00;75086.34;5071583;28;20055;-64
2023/07/24 07:29:46;;;;;;;9.38;3.55;;;;;;;-142.75;100.00;75066.66;5077533;28;20055;-64
2023/07/24 07:32:11;;;;;;;12.25;3.85;;;;;;;-142.75;100.00;75078.47;5079508;28;20553;-64
2023/07/24 07:34:38;;;;;;;6.68;3.85;;;;;;;-142.75;100.00;75064.69;5074805;28;20021;-64
2023/07/24 07:37:04;;;;;;;14.73;4.30;;;;;;;-142.75;100.00;75064.69;5070207;28;20039;-63
2023/07/24 07:39:29;;;;;;;8.23;3.95;;;;;;;-142.75;100.00;75056.81;5069317;28;20017;-64
2023/07/24 07:41:55;;;;;;;10.30;4.40;;;;;;;-142.75;100.00;75082.41;5069412;28;20508;-64
2023/07/24 07:44:20;;;;;;;10.35;4.30;;;;;;;-142.75;100.00;75082.41;5071116;28;20104;-64
2023/07/24 07:46:46;;;;;;;9.63;4.00;;;;;;;-142.75;100.00;75092.25;5071312;28;20048;-64
2023/07/24 07:49:11;;;;;;;9.25;3.60;;;;;;;-142.75;100.00;75066.66;5071375;28;20070;-64
2023/07/24 07:51:36;;;;;;;10.45;4.13;;;;;;;-142.75;100.00;75070.59;5073716;28;20073;-64
2023/07/24 07:54:02;;;;;;;8.40;3.70;;;;;;;-142.75;100.00;75066.66;5072220;28;20081;-64
2023/07/24 07:56:28;;;;;;;7.20;4.75;;;;;;;-142.75;100.00;75090.28;5072977;28;20017;-64
2023/07/24 07:58:54;;;;;;;8.75;4.20;;;;;;;-142.75;100.00;75098.16;5071082;28;20020;-65
2023/07/24 08:01:19;;;;;;;9.75;4.28;;;;;;;-142.75;100.00;75109.94;5070705;28;20040;-64
2023/07/24 08:03:45;;;;;;;8.40;4.35;;;;;;;-142.75;100.00;75092.25;5077586;28;20020;-65
2023/07/24 08:06:10;;;;;;;7.50;4.25;;;;;;;-142.75;100.00;75056.81;5090516;28;20515;-61
2023/07/24 08:08:35;;;;;;;9.07;4.20;;;;;;;-142.75;100.00;75054.84;5091414;28;20130;-57
2023/07/24 08:11:07;;;;;;;7.60;3.95;;;;;;;-142.75;100.00;75015.50;5090800;28;20081;-61
2023/07/24 08:13:33;;;;;;;11.63;4.47;;;;;;;-142.75;100.00;74982.03;5091178;28;20097;-62
2023/07/24 08:15:59;;;;;;;9.27;5.50;;;;;;;-142.75;100.00;75009.59;5091344;28;20016;-62
2023/07/24 08:18:25;;;;;;;8.30;4.93;;;;;;;-142.75;100.00;75007.63;5090974;28;20074;-59
2023/07/24 08:20:51;;;;;;;9.70;5.05;;;;;;;-142.75;100.00;75015.50;5089338;28;20039;-65
2023/07/24 08:23:16;;;;;;;12.60;5.18;;;;;;;-142.75;100.00;75035.19;5089714;28;20020;-63
2023/07/24 08:25:51;;;;;;;12.35;4.75;;;;;;;-142.75;100.00;75046.97;5091095;28;20030;-63
2023/07/24 08:28:16;;;;;;;14.45;4.68;;;;;;;-142.75;100.00;75092.25;5090821;28;20016;-63
2023/07/24 08:30:42;;;;;;;9.02;3.88;;;;;;;-142.75;100.00;75056.81;5090244;28;20035;-63
2023/07/24 08:33:07;;;;;;;8.13;3.83;;;;;;;-142.75;100.00;75086.34;5089622;28;20028;-64
2023/07/24 08:35:32;;;;;;;8.00;3.63;;;;;;;-142.75;100.00;75078.47;5089918;28;20020;-64
2023/07/24 08:37:58;;;;;;;8.55;3.40;;;;;;;-142.75;100.00;75058.78;5090592;28;20537;-64
2023/07/24 08:40:23;;;;;;;8.52;3.88;;;;;;;-142.75;100.00;75046.97;5089435;28;20028;-64
2023/07/24 08:42:52;;;;;;;7.60;3.20;;;;;;;-142.75;100.00;75015.50;5088506;28;20610;-64
2023/07/24 08:45:18;;;;;;;6.97;3.55;;;;;;;-142.75;100.00;75062.72;5089799;28;20054;-65
2023/07/24 08:47:44;;;;;;;8.43;3.92;;;;;;;-142.75;100.00;75096.19;5089445;28;20028;-65
2023/07/24 08:50:11;;;;;;;6.57;3.50;;;;;;;-142.75;100.00;75080.44;5089318;28;20023;-64
2023/07/24 08:52:40;;;;;;;9.18;3.75;;;;;;;-142.75;100.00;75119.78;5089833;28;20028;-64
2023/07/24 08:55:06;;;;;;;6.57;3.65;;;;;;;-142.75;100.00;75133.56;5089486;28;20027;-65
2023/07/24 08:57:31;;;;;;;10.85;3.97;;;;;;;-142.75;100.00;75141.44;5089761;28;20395;-65
2023/07/24 08:59:58;;;;;;;6.32;3.70;;;;;;;-142.75;100.00;75149.31;5089586;28;20031;-65
2023/07/24 09:02:23;;;;;;;6.10;3.80;;;;;;;-142.75;100.00;75123.72;5089702;28;20020;-65
2023/07/24 09:04:49;;;;;;;7.78;3.75;;;;;;;-142.75;100.00;75088.31;5089302;28;20019;-64
2023/07/24 09:07:14;;;;;;;7.28;3.85;;;;;;;-142.75;100.00;75039.13;5089713;28;20031;-65
2023/07/24 09:09:39;;;;;;;10.07;4.32;;;;;;;-142.75;100.00;75015.50;5089977;28;20020;-65
2023/07/24 09:12:05;;;;;;;9.63;4.28;;;;;;;-142.75;100.00;75056.81;5089486;28;20061;-65
2023/07/24 09:14:30;;;;;;;8.88;3.80;;;;;;;-142.75;100.00;75041.09;5089946;28;20031;-64
2023/07/24 09:17:07;;;;;;;8.88;4.25;;;;;;;-142.75;100.00;75017.47;5088961;28;20242;-65
2023/07/24 09:19:33;;;;;;;8.60;4.03;;;;;;;-142.75;100.00;75027.31;5089555;28;20032;-65
2023/07/24 09:22:09;;;;;;;7.53;4.05;;;;;;;-142.75;100.00;74985.97;5089502;28;20390;-65
2023/07/24 09:24:35;;;;;;;7.72;4.40;;;;;;;-142.75;100.00;74989.91;5089824;28;20149;-64
2023/07/24 09:27:00;;;;;;;7.63;3.85;;;;;;;-142.75;100.00;74976.16;5089495;28;20107;-65
2023/07/24 09:29:33;;;;;;;8.93;4.00;;;;;;;-142.75;100.00;74934.81;5089663;28;20028;-65
2023/07/24 09:31:59;;;;;;;10.40;3.92;;;;;;;-142.75;100.00;74956.47;5089544;28;20047;-65
2023/07/24 09:34:25;;;;;;;9.38;3.55;;;;;;;-142.75;100.00;74974.19;5087539;28;20028;-64
2023/07/24 09:36:51;;;;;;;7.65;3.83;;;;;;;-142.75;100.00;74936.78;5089250;28;20023;-64
2023/07/24 09:39:24;;;;;;;9.93;3.97;;;;;;;-142.75;100.00;74911.22;5087508;28;20519;-64
2023/07/24 09:41:49;;;;;;;9.70;4.13;;;;;;;-142.75;100.00;74909.25;5087798;28;20111;-64
2023/07/24 09:44:15;;;;;;;5.97;3.17;;;;;;;-142.75;100.00;74923.03;5088741;28;20452;-64
2023/07/24 09:46:43;;;;;;;10.52;3.80;;;;;;;-142.75;100.00;74928.91;5088628;28;20076;-64
2023/07/24 09:49:08;;;;;;;7.40;3.83;;;;;;;-142.75;100.00;74932.84;5089236;28;21447;-64
2023/07/24 09:51:34;;;;;;;8.85;3.65;;;;;;;-142.75;100.00;74934.81;5087376;28;20054;-64
2023/07/24 09:54:15;;;;;;;13.63;4.00;;;;;;;-142.75;100.00;74940.72;5089160;28;20028;-64
2023/07/24 09:56:41;;;;;;;6.43;3.63;;;;;;;-142.75;100.00;74934.81;5088941;28;20023;-64
2023/07/24 09:59:10;;;;;;;7.97;3.53;;;;;;;-142.75;100.00;74936.78;5071135;28;20024;-64
2023/07/24 10:01:37;;;;;;;7.35;3.25;;;;;;;-142.75;100.00;74944.66;5069312;28;20029;-64
2023/07/24 10:04:04;;;;;;;4.70;3.33;;;;;;;-142.75;100.00;74970.25;5066793;28;20024;-63
2023/07/24 10:06:29;;;;;;;6.20;3.63;;;;;;;-142.75;100.00;74984.00;5068172;28;20032;-64
2023/07/24 10:08:55;;;;;;;9.18;3.22;;;;;;;-142.75;100.00;75007.63;5068526;28;20391;-64
2023/07/24 10:11:22;;;;;;;8.88;3.53;;;;;;;-142.75;100.00;74995.81;5068458;28;20027;-64
2023/07/24 10:13:48;;;;;;;6.63;3.13;;;;;;;-142.75;100.00;74997.78;5070920;28;20029;-65
2023/07/24 10:16:13;;;;;;;11.93;3.35;;;;;;;-142.75;100.00;75031.25;5068505;28;20024;-64
2023/07/24 10:18:45;;;;;;;8.75;3.30;;;;;;;-142.75;100.00;75015.50;5068479;28;20043;-64
2023/07/24 10:21:11;;;;;;;6.93;3.70;;;;;;;-142.75;100.00;75045.00;5068044;28;20027;-64
2023/07/24 10:23:40;;;;;;;7.22;3.90;;;;;;;-142.75;100.00;75023.38;5070258;28;20029;-65
2023/07/24 10:26:06;;;;;;;9.07;4.03;;;;;;;-142.75;100.00;75015.50;5068758;28;20076;-64
2023/07/24 10:28:39;;;;;;;10.23;3.78;;;;;;;-142.75;100.00;75027.31;5069452;28;20125;-65
2023/07/24 10:31:19;;;;;;;5.63;3.10;;;;;;;-142.75;100.00;75023.38;5087970;28;20028;-63
2023/07/24 10:33:45;;;;;;;7.20;3.67;;;;;;;-142.75;100.00;74999.75;5073230;28;20387;-63
2023/07/24 10:36:13;;;;;;;8.90;3.17;;;;;;;-142.75;100.00;74989.91;5068205;28;20027;-63
2023/07/24 10:38:42;;;;;;;6.60;3.10;;;;;;;-142.75;100.00;74950.56;5068424;28;20107;-62
2023/07/24 10:41:09;;;;;;;9.27;3.60;;;;;;;-142.75;100.00;74862.03;5068099;28;20055;-63
2023/07/24 10:43:45;;;;;;;6.53;3.58;;;;;;;-142.75;100.00;74799.06;5068154;28;20105;-63
2023/07/24 10:46:11;;;;;;;7.65;3.17;;;;;;;-142.75;100.00;74836.44;5068482;28;20056;-63
2023/07/24 10:48:37;;;;;;;6.88;2.72;;;;;;;-142.75;100.00;74854.16;5068049;28;20028;-63
2023/07/24 10:51:10;;;;;;;6.50;2.80;;;;;;;-142.75;100.00;74842.34;5067896;28;20025;-63
2023/07/24 10:53:40;;;;;;;5.75;2.47;;;;;;;-142.75;100.00;74826.59;5068295;28;20029;-63
2023/07/24 10:56:07;;;;;;;7.00;2.58;;;;;;;-142.75;100.00;74840.38;5068228;28;20027;-63
2023/07/24 10:58:32;;;;;;;11.63;2.65;;;;;;;-142.75;100.00;74842.34;5077052;28;20430;-62
2023/07/24 11:00:58;;;;;;;3.50;2.03;;;;;;;-142.75;100.00;74808.91;5085060;28;20030;-64
2023/07/24 11:03:24;;;;;;;4.47;2.80;;;;;;;-142.75;100.00;74791.19;5069059;28;20103;-64
2023/07/24 11:05:50;;;;;;;8.55;3.47;;;;;;;-142.75;100.00;74787.25;5068926;28;20020;-62